createdAt,value
2019-01-12T00:02:20.773Z,11.20
2019-01-12T00:04:59.537Z,11.00
2019-01-12T00:07:35.507Z,10.90
2019-01-12T00:10:10.275Z,10.80
2019-01-12T00:12:44.437Z,10.70
2019-01-12T00:15:18.487Z,10.60
2019-01-12T00:17:55.922Z,10.50
2019-01-12T00:20:32.484Z,10.40
2019-01-12T00:23:08.223Z,10.30
2019-01-12T00:25:42.421Z,10.20
2019-01-12T00:28:17.391Z,10.10
2019-01-12T00:30:51.610Z,10.10
2019-01-12T00:33:26.066Z,10.10
2019-01-12T00:36:01.439Z,10.00
2019-01-12T00:38:36.154Z,10.00
2019-01-12T00:41:10.220Z,9.90
2019-01-12T00:43:45.922Z,9.90
2019-01-12T00:46:23.997Z,9.80
2019-01-12T00:48:59.393Z,9.80
2019-01-12T00:51:33.427Z,9.70
2019-01-12T00:54:08.838Z,9.60
2019-01-12T00:56:47.739Z,9.60
2019-01-12T00:59:21.572Z,9.50
2019-01-12T01:01:55.604Z,9.60
2019-01-12T01:04:32.488Z,9.70
2019-01-12T01:07:08.964Z,9.80
2019-01-12T01:09:44.821Z,10.00
2019-01-12T01:12:18.844Z,10.10
2019-01-12T01:14:53.292Z,10.20
2019-01-12T01:17:28.791Z,10.30
2019-01-12T01:20:04.049Z,10.30
2019-01-12T01:22:38.286Z,10.30
2019-01-12T01:25:23.614Z,10.30
2019-01-12T01:28:08.652Z,10.40
2019-01-12T01:30:43.010Z,10.40
2019-01-12T01:33:17.776Z,10.40
2019-01-12T01:35:53.304Z,10.40
2019-01-12T01:38:28.888Z,10.50
2019-01-12T01:41:03.822Z,10.50
2019-01-12T01:43:42.759Z,10.50
2019-01-12T01:46:17.755Z,10.60
2019-01-12T01:48:52.075Z,10.70
2019-01-12T01:51:26.161Z,10.70
2019-01-12T01:54:00.381Z,10.80
2019-01-12T01:56:34.784Z,10.80
2019-01-12T01:59:08.911Z,10.80
2019-01-12T02:01:43.805Z,10.80
2019-01-12T02:04:20.211Z,10.90
2019-01-12T02:06:54.290Z,10.80
2019-01-12T02:09:28.497Z,10.90
2019-01-12T02:12:02.916Z,10.80
2019-01-12T02:14:40.030Z,10.90
2019-01-12T02:17:16.242Z,10.90
2019-01-12T02:19:50.356Z,11.00
2019-01-12T02:22:25.591Z,10.80
2019-01-12T02:25:01.348Z,10.70
2019-01-12T02:27:35.312Z,10.70
2019-01-12T02:30:13.407Z,10.60
2019-01-12T02:32:47.728Z,10.50
2019-01-12T02:35:25.060Z,10.50
2019-01-12T02:38:00.645Z,10.60
2019-01-12T02:40:38.097Z,10.60
2019-01-12T02:43:12.286Z,10.50
2019-01-12T02:45:47.635Z,10.40
2019-01-12T02:48:21.790Z,10.40
2019-01-12T02:50:58.170Z,10.30
2019-01-12T02:53:34.236Z,10.20
2019-01-12T02:56:10.028Z,10.20
2019-01-12T02:58:45.252Z,10.10
2019-01-12T03:01:19.955Z,10.10
2019-01-12T03:03:54.262Z,10.00
2019-01-12T03:06:28.532Z,10.00
2019-01-12T03:09:03.239Z,9.90
2019-01-12T03:11:37.535Z,9.90
2019-01-12T03:14:11.568Z,9.80
2019-01-12T03:16:46.496Z,9.70
2019-01-12T03:19:21.475Z,9.70
2019-01-12T03:21:55.699Z,9.70
2019-01-12T03:24:29.914Z,9.80
2019-01-12T03:27:05.210Z,9.70
2019-01-12T03:29:39.221Z,9.60
2019-01-12T03:32:30.361Z,9.40
2019-01-12T03:35:09.060Z,9.40
2019-01-12T03:37:45.309Z,9.20
2019-01-12T03:40:21.561Z,9.10
2019-01-12T03:42:55.989Z,9.10
2019-01-12T03:45:31.023Z,8.90
2019-01-12T03:48:05.066Z,8.90
2019-01-12T03:50:43.497Z,8.80
2019-01-12T03:53:20.972Z,8.70
2019-01-12T03:56:07.104Z,8.60
2019-01-12T03:58:42.426Z,8.60
2019-01-12T04:01:21.217Z,8.60
2019-01-12T04:04:04.660Z,8.50
2019-01-12T04:06:39.888Z,8.50
2019-01-12T04:09:20.533Z,8.40
2019-01-12T04:12:01.458Z,8.40
2019-01-12T04:14:39.077Z,8.40
2019-01-12T04:17:16.933Z,8.30
2019-01-12T04:19:53.631Z,8.30
2019-01-12T04:22:51.546Z,8.20
2019-01-12T04:25:33.904Z,8.20
2019-01-12T04:28:07.999Z,8.10
2019-01-12T04:30:42.291Z,8.10
2019-01-12T04:33:17.474Z,8.10
2019-01-12T04:35:52.860Z,8.10
2019-01-12T04:38:30.651Z,8.00
2019-01-12T04:41:07.498Z,8.00
2019-01-12T04:43:43.423Z,7.90
2019-01-12T04:46:25.904Z,7.90
2019-01-12T04:49:06.267Z,8.00
2019-01-12T04:51:59.221Z,7.90
2019-01-12T04:54:46.832Z,7.90
2019-01-12T04:57:21.152Z,7.90
2019-01-12T05:00:41.444Z,7.80
2019-01-12T05:03:55.141Z,7.80
2019-01-12T05:06:33.905Z,7.70
2019-01-12T05:09:27.546Z,7.60
2019-01-12T05:12:05.653Z,7.60
2019-01-12T05:14:42.819Z,7.50
2019-01-12T05:17:21.718Z,7.50
2019-01-12T05:19:58.812Z,7.40
2019-01-12T05:22:36.167Z,7.40
2019-01-12T05:25:34.313Z,7.40
2019-01-12T05:28:39.200Z,7.40
2019-01-12T05:31:18.035Z,7.40
2019-01-12T05:33:57.297Z,7.40
2019-01-12T05:36:44.715Z,7.40
2019-01-12T05:39:23.292Z,7.30
2019-01-12T05:42:12.206Z,7.20
2019-01-12T05:44:50.857Z,7.20
2019-01-12T05:47:30.387Z,7.20
2019-01-12T05:50:19.790Z,7.20
2019-01-12T05:52:59.709Z,7.20
2019-01-12T05:55:35.255Z,7.10
2019-01-12T05:58:13.296Z,7.10
2019-01-12T06:00:50.258Z,7.10
2019-01-12T06:03:29.884Z,7.00
2019-01-12T06:06:19.800Z,7.00
2019-01-12T06:08:59.288Z,7.00
2019-01-12T06:11:37.804Z,7.00
2019-01-12T06:14:36.817Z,6.90
2019-01-12T06:17:13.688Z,6.90
2019-01-12T06:19:50.938Z,6.90
2019-01-12T06:22:30.018Z,6.90
2019-01-12T06:25:09.643Z,6.90
2019-01-12T06:27:44.508Z,6.90
2019-01-12T06:30:30.693Z,6.90
2019-01-12T06:33:15.791Z,6.90
2019-01-12T06:36:15.143Z,6.80
2019-01-12T06:38:51.759Z,6.80
2019-01-12T06:41:28.320Z,6.80
2019-01-12T06:44:04.967Z,6.80
2019-01-12T06:46:56.457Z,6.80
2019-01-12T06:49:33.015Z,6.80
2019-01-12T06:52:09.950Z,6.70
2019-01-12T06:54:56.346Z,6.70
2019-01-12T06:57:37.896Z,6.70
2019-01-12T07:00:18.638Z,6.70
2019-01-12T07:03:01.553Z,6.70
2019-01-12T07:06:06.879Z,6.70
2019-01-12T07:09:04.565Z,6.80
2019-01-12T07:11:52.381Z,6.80
2019-01-12T07:14:27.082Z,6.80
2019-01-12T07:17:02.422Z,6.80
2019-01-12T07:19:58.633Z,6.90
2019-01-12T07:22:46.313Z,6.90
2019-01-12T07:25:36.166Z,7.00
2019-01-12T07:28:29.295Z,6.90
2019-01-12T07:31:10.428Z,7.00
2019-01-12T07:33:50.829Z,6.90
2019-01-12T07:36:27.579Z,6.90
2019-01-12T07:39:23.195Z,6.90
2019-01-12T07:42:05.127Z,6.90
2019-01-12T07:44:49.479Z,6.90
2019-01-12T07:47:26.480Z,6.90
2019-01-12T07:50:06.192Z,6.90
2019-01-12T07:52:47.533Z,6.90
2019-01-12T07:55:26.987Z,6.80
2019-01-12T07:58:13.976Z,6.80
2019-01-12T08:00:54.352Z,6.70
2019-01-12T08:03:37.130Z,6.70
2019-01-12T08:06:15.663Z,6.70
2019-01-12T08:08:54.246Z,6.60
2019-01-12T08:11:34.083Z,6.60
2019-01-12T08:15:17.807Z,6.50
2019-01-12T08:18:07.050Z,6.50
2019-01-12T08:21:10.333Z,6.40
2019-01-12T08:23:50.183Z,6.40
2019-01-12T08:26:31.781Z,6.40
2019-01-12T08:29:12.216Z,6.50
2019-01-12T08:35:29.583Z,6.40
2019-01-12T08:38:21.140Z,6.30
2019-01-12T08:40:55.891Z,6.30
2019-01-12T08:43:56.763Z,6.20
2019-01-12T08:46:45.595Z,6.20
2019-01-12T08:49:33.454Z,6.20
2019-01-12T08:52:48.528Z,6.20
2019-01-12T08:58:50.579Z,6.10
2019-01-12T09:01:34.482Z,6.00
2019-01-12T09:05:00.555Z,6.00
2019-01-12T09:07:51.344Z,5.90
2019-01-12T09:10:47.130Z,5.90
2019-01-12T09:13:36.872Z,5.80
2019-01-12T09:16:12.049Z,5.80
2019-01-12T09:18:59.795Z,5.80
2019-01-12T09:22:25.045Z,5.80
2019-01-12T09:25:06.078Z,5.70
2019-01-12T09:31:03.561Z,5.70
2019-01-12T09:34:28.112Z,5.60
2019-01-12T09:37:52.498Z,5.60
2019-01-12T09:41:17.461Z,5.60
2019-01-12T09:44:31.203Z,5.60
2019-01-12T09:47:49.362Z,5.60
2019-01-12T09:57:39.624Z,5.50
2019-01-12T10:00:40.485Z,5.50
2019-01-12T10:04:48.913Z,5.50
2019-01-12T10:18:01.847Z,5.40
2019-01-12T10:27:11.745Z,5.30
2019-01-12T10:29:54.266Z,5.40
2019-01-12T10:36:16.357Z,5.30
2019-01-12T10:38:56.982Z,5.30
2019-01-12T10:57:05.244Z,5.10
2019-01-12T11:03:25.987Z,5.10
2019-01-12T11:26:01.540Z,5.00
2019-01-12T11:28:50.143Z,5.20
2019-01-12T11:31:49.733Z,5.10
2019-01-12T11:39:14.718Z,5.00
2019-01-12T11:42:35.322Z,4.90
2019-01-12T12:00:20.710Z,4.70
2019-01-12T12:07:33.933Z,4.70
2019-01-12T12:10:48.657Z,4.70
2019-01-12T12:14:11.463Z,4.70
2019-01-12T12:16:53.612Z,4.70
2019-01-12T12:19:34.765Z,4.60
2019-01-12T12:22:19.020Z,4.60
2019-01-12T12:25:06.043Z,4.60
2019-01-12T12:28:27.751Z,4.60
2019-01-12T12:35:37.880Z,4.50
2019-01-12T12:42:24.115Z,4.40
2019-01-12T12:45:30.252Z,4.40
2019-01-12T12:51:48.667Z,4.40
2019-01-12T12:57:55.549Z,4.50
2019-01-12T13:00:58.570Z,4.50
2019-01-12T13:03:45.271Z,4.50
2019-01-12T13:10:58.607Z,4.50
2019-01-12T13:13:41.552Z,4.40
2019-01-12T13:16:26.300Z,4.50
2019-01-12T13:19:08.088Z,4.50
2019-01-12T13:21:44.352Z,4.40
2019-01-12T13:24:42.127Z,4.40
2019-01-12T13:27:42.128Z,4.30
2019-01-12T13:30:36.366Z,4.30
2019-01-12T13:33:11.413Z,4.20
2019-01-12T13:36:04.120Z,4.20
2019-01-12T13:39:32.359Z,4.10
2019-01-12T13:42:16.951Z,4.10
2019-01-12T13:53:06.341Z,4.00
2019-01-12T13:56:02.650Z,4.00
2019-01-12T14:01:25.972Z,3.90
2019-01-12T14:04:18.403Z,3.90
2019-01-12T14:07:20.109Z,3.90
2019-01-12T14:11:11.914Z,3.90
2019-01-12T14:13:58.940Z,3.80
2019-01-12T14:16:33.052Z,4.00
2019-01-12T14:19:13.321Z,4.10
2019-01-12T14:22:23.719Z,4.00
2019-01-12T14:25:01.346Z,3.90
2019-01-12T14:32:12.018Z,3.80
2019-01-12T14:35:04.864Z,3.80
2019-01-12T14:37:49.467Z,3.80
2019-01-12T14:40:24.924Z,3.80
2019-01-12T14:43:23.937Z,3.70
2019-01-12T14:51:11.925Z,3.60
2019-01-12T14:54:37.758Z,3.60
2019-01-12T15:01:23.373Z,3.50
2019-01-12T15:04:04.931Z,3.50
2019-01-12T15:18:56.925Z,3.40
2019-01-12T15:41:01.408Z,3.60
2019-01-12T15:43:39.057Z,3.60
2019-01-12T15:50:23.536Z,3.60
2019-01-12T15:54:08.838Z,3.60
2019-01-12T16:00:43.901Z,3.70
2019-01-12T16:06:56.252Z,3.70
2019-01-12T16:09:38.149Z,3.70
2019-01-12T16:12:21.113Z,3.70
2019-01-12T16:15:26.927Z,3.70
2019-01-12T16:18:14.112Z,3.70
2019-01-12T16:21:07.866Z,3.80
2019-01-12T16:27:29.153Z,3.80
2019-01-12T16:30:14.259Z,3.80
2019-01-12T16:33:14.764Z,3.90
2019-01-12T16:35:56.886Z,3.90
2019-01-12T16:38:52.885Z,3.90
2019-01-12T16:49:03.773Z,4.00
2019-01-12T16:51:46.303Z,4.00
2019-01-12T16:54:24.827Z,4.00
2019-01-12T16:57:11.853Z,4.00
2019-01-12T17:00:32.658Z,4.00
2019-01-12T17:03:12.099Z,4.00
2019-01-12T17:06:03.170Z,4.10
2019-01-12T17:08:42.489Z,4.20
2019-01-12T17:11:20.465Z,4.20
2019-01-12T17:13:57.373Z,4.20
2019-01-12T17:16:34.446Z,4.20
2019-01-12T17:19:13.487Z,4.20
2019-01-12T17:21:48.803Z,4.30
2019-01-12T17:24:43.646Z,4.30
2019-01-12T17:27:38.971Z,4.40
2019-01-12T17:30:21.092Z,4.50
2019-01-12T17:32:56.844Z,4.50
2019-01-12T17:36:10.660Z,4.60
2019-01-12T17:39:03.737Z,4.70
2019-01-12T17:41:48.416Z,4.80
2019-01-12T17:44:29.167Z,4.90
2019-01-12T17:47:18.282Z,4.90
2019-01-12T17:50:01.298Z,5.00
2019-01-12T17:52:50.955Z,5.10
2019-01-12T17:55:30.068Z,5.30
2019-01-12T17:58:11.319Z,5.40
2019-01-12T18:00:54.374Z,5.50
2019-01-12T18:03:29.504Z,5.60
2019-01-12T18:06:15.057Z,5.70
2019-01-12T18:08:50.941Z,5.80
2019-01-12T18:11:27.143Z,5.90
2019-01-12T18:14:01.303Z,6.00
2019-01-12T18:16:37.203Z,6.00
2019-01-12T18:19:13.557Z,6.00
2019-01-12T18:21:51.368Z,6.10
2019-01-12T18:24:27.501Z,6.10
2019-01-12T18:27:03.293Z,6.20
2019-01-12T18:29:38.236Z,6.20
2019-01-12T18:32:12.084Z,6.30
2019-01-12T18:34:47.669Z,6.30
2019-01-12T18:37:28.161Z,6.40
2019-01-12T18:40:03.128Z,6.50
2019-01-12T18:42:43.355Z,6.60
2019-01-12T18:45:20.655Z,6.70
2019-01-12T18:47:54.789Z,6.80
2019-01-12T18:50:31.779Z,7.00
2019-01-12T18:53:06.540Z,7.10
2019-01-12T18:55:40.747Z,7.20
2019-01-12T18:58:14.866Z,7.40
2019-01-12T19:00:49.535Z,7.60
2019-01-12T19:03:23.677Z,7.70
2019-01-12T19:06:00.272Z,7.90
2019-01-12T19:08:36.315Z,8.10
2019-01-12T19:11:10.538Z,8.20
2019-01-12T19:13:45.292Z,8.30
2019-01-12T19:16:24.833Z,8.40
2019-01-12T19:19:09.994Z,8.40
2019-01-12T19:21:43.974Z,8.50
2019-01-12T19:24:19.594Z,8.70
2019-01-12T19:26:55.964Z,8.80
2019-01-12T19:29:30.286Z,8.80
2019-01-12T19:32:04.318Z,8.90
2019-01-12T19:34:38.373Z,9.00
2019-01-12T19:37:13.198Z,9.00
2019-01-12T19:39:47.283Z,9.00
2019-01-12T19:42:22.516Z,9.10
2019-01-12T19:44:57.141Z,9.30
2019-01-12T19:47:31.762Z,9.50
2019-01-12T19:50:11.142Z,9.60
2019-01-12T19:52:50.180Z,9.80
2019-01-12T19:55:24.679Z,9.90
2019-01-12T19:57:59.854Z,10.10
2019-01-12T20:00:37.841Z,10.20
2019-01-12T20:03:12.044Z,10.30
2019-01-12T20:05:46.446Z,10.30
2019-01-12T20:08:24.098Z,10.30
2019-01-12T20:10:59.038Z,10.30
2019-01-12T20:13:34.843Z,10.30
2019-01-12T20:16:09.915Z,10.30
2019-01-12T20:18:46.371Z,10.30
2019-01-12T20:21:22.577Z,10.30
2019-01-12T20:23:59.762Z,10.30
2019-01-12T20:26:37.315Z,10.30
2019-01-12T20:29:20.969Z,10.30
2019-01-12T20:32:10.323Z,10.30
2019-01-12T20:34:58.601Z,10.40
2019-01-12T20:38:11.885Z,10.50
2019-01-12T20:41:29.222Z,10.60
2019-01-12T20:44:34.234Z,10.60
2019-01-12T20:47:43.650Z,10.50
2019-01-12T20:51:13.223Z,10.60
2019-01-12T20:54:23.493Z,10.70
2019-01-12T20:57:25.467Z,10.80
2019-01-12T21:00:37.314Z,10.80
2019-01-12T21:03:46.940Z,11.00
2019-01-12T21:07:08.494Z,11.10
2019-01-12T21:10:25.343Z,11.30
2019-01-12T21:13:42.072Z,11.30
2019-01-12T21:16:23.349Z,11.40
2019-01-12T21:18:57.383Z,11.40
2019-01-12T21:21:33.353Z,11.40
2019-01-12T21:24:08.328Z,11.40
2019-01-12T21:26:44.785Z,11.40
2019-01-12T21:29:19.849Z,11.50
2019-01-12T21:31:59.424Z,11.50
2019-01-12T21:34:33.581Z,11.70
2019-01-12T21:37:09.541Z,11.90
2019-01-12T21:39:45.935Z,12.10
2019-01-12T21:42:23.069Z,12.30
2019-01-12T21:44:59.082Z,12.50
2019-01-12T21:47:36.295Z,12.80
2019-01-12T21:50:12.463Z,12.90
2019-01-12T21:53:10.393Z,13.00
2019-01-12T21:55:47.138Z,13.20
2019-01-12T21:58:26.780Z,13.30
2019-01-12T22:01:02.009Z,13.40
2019-01-12T22:03:38.535Z,13.50
2019-01-12T22:06:16.793Z,13.50
2019-01-12T22:08:50.811Z,13.50
2019-01-12T22:11:25.693Z,13.60
2019-01-12T22:14:01.858Z,13.70
2019-01-12T22:16:37.931Z,13.70
2019-01-12T22:19:11.488Z,13.90
2019-01-12T22:21:47.416Z,13.90
2019-01-12T22:24:22.043Z,14.10
2019-01-12T22:26:56.478Z,14.10
2019-01-12T22:29:33.140Z,14.30
2019-01-12T22:32:07.462Z,14.10
2019-01-12T22:34:43.016Z,14.00
2019-01-12T22:37:18.184Z,13.80
2019-01-12T22:39:53.218Z,13.60
2019-01-12T22:42:28.592Z,13.40
2019-01-12T22:45:03.268Z,13.30
2019-01-12T22:47:41.663Z,13.10
2019-01-12T22:50:17.984Z,13.10
2019-01-12T22:52:52.353Z,13.00
2019-01-12T22:55:26.630Z,12.90
2019-01-12T22:58:00.582Z,12.80
2019-01-12T23:00:52.054Z,12.70
2019-01-12T23:03:27.405Z,12.60
2019-01-12T23:06:03.214Z,12.40
2019-01-12T23:08:38.590Z,12.40
2019-01-12T23:11:13.046Z,12.30
2019-01-12T23:13:50.195Z,12.30
2019-01-12T23:16:24.379Z,12.30
2019-01-12T23:18:58.891Z,12.40
2019-01-12T23:21:33.194Z,12.50
2019-01-12T23:24:11.240Z,12.60
2019-01-12T23:26:47.290Z,12.70
2019-01-12T23:29:21.314Z,12.70
2019-01-12T23:31:57.956Z,12.60
2019-01-12T23:34:33.154Z,12.70
2019-01-12T23:37:08.301Z,12.60
2019-01-12T23:39:42.566Z,12.50
2019-01-12T23:42:19.886Z,12.50
2019-01-12T23:44:57.949Z,12.40
2019-01-12T23:47:32.758Z,12.30
2019-01-12T23:50:07.650Z,12.20
2019-01-12T23:52:41.980Z,12.10
2019-01-12T23:55:17.337Z,11.90
2019-01-12T23:57:52.535Z,11.70
